sensor_id;sensor_type;location;lat;lon;timestamp;P1;durP1;ratioP1;P2;durP2;ratioP2
39788;SDS011;25478;42.626;23.320;2023-07-30T00:01:57;5.50;;;3.00;;
39788;SDS011;25478;42.626;23.320;2023-07-30T00:04:22;3.45;;;2.63;;
39788;SDS011;25478;42.626;23.320;2023-07-30T00:06:48;3.38;;;2.58;;
39788;SDS011;25478;42.626;23.320;2023-07-30T00:09:14;4.20;;;2.58;;
39788;SDS011;25478;42.626;23.320;2023-07-30T00:11:39;3.58;;;2.53;;
39788;SDS011;25478;42.626;23.320;2023-07-30T00:14:05;4.32;;;2.70;;
39788;SDS011;25478;42.626;23.320;2023-07-30T00:16:30;4.55;;;2.40;;
39788;SDS011;25478;42.626;23.320;2023-07-30T00:18:56;4.18;;;2.53;;
39788;SDS011;25478;42.626;23.320;2023-07-30T00:21:21;4.18;;;2.70;;
39788;SDS011;25478;42.626;23.320;2023-07-30T00:23:47;4.35;;;2.65;;
39788;SDS011;25478;42.626;23.320;2023-07-30T00:26:13;4.57;;;2.80;;
39788;SDS011;25478;42.626;23.320;2023-07-30T00:28:39;6.53;;;2.65;;
39788;SDS011;25478;42.626;23.320;2023-07-30T00:31:04;5.57;;;2.67;;
39788;SDS011;25478;42.626;23.320;2023-07-30T00:33:30;3.83;;;2.47;;
39788;SDS011;25478;42.626;23.320;2023-07-30T00:35:55;4.38;;;2.90;;
39788;SDS011;25478;42.626;23.320;2023-07-30T00:38:21;5.78;;;3.13;;
39788;SDS011;25478;42.626;23.320;2023-07-30T00:40:46;3.92;;;2.45;;
39788;SDS011;25478;42.626;23.320;2023-07-30T00:43:12;3.67;;;2.83;;
39788;SDS011;25478;42.626;23.320;2023-07-30T00:45:38;4.70;;;2.67;;
39788;SDS011;25478;42.626;23.320;2023-07-30T00:48:06;4.70;;;3.13;;
39788;SDS011;25478;42.626;23.320;2023-07-30T00:50:32;5.00;;;2.72;;
39788;SDS011;25478;42.626;23.320;2023-07-30T00:52:58;5.07;;;3.30;;
39788;SDS011;25478;42.626;23.320;2023-07-30T00:55:24;5.15;;;2.85;;
39788;SDS011;25478;42.626;23.320;2023-07-30T00:57:50;3.92;;;2.33;;
39788;SDS011;25478;42.626;23.320;2023-07-30T01:00:16;5.30;;;2.92;;
39788;SDS011;25478;42.626;23.320;2023-07-30T01:02:42;4.25;;;3.00;;
39788;SDS011;25478;42.626;23.320;2023-07-30T01:05:09;4.35;;;2.80;;
39788;SDS011;25478;42.626;23.320;2023-07-30T01:07:34;4.40;;;2.80;;
39788;SDS011;25478;42.626;23.320;2023-07-30T01:10:00;5.00;;;2.40;;
39788;SDS011;25478;42.626;23.320;2023-07-30T01:12:27;5.53;;;2.75;;
39788;SDS011;25478;42.626;23.320;2023-07-30T01:14:56;4.90;;;3.00;;
39788;SDS011;25478;42.626;23.320;2023-07-30T01:17:22;4.93;;;2.97;;
39788;SDS011;25478;42.626;23.320;2023-07-30T01:19:48;4.35;;;2.83;;
39788;SDS011;25478;42.626;23.320;2023-07-30T01:22:20;5.45;;;2.80;;
39788;SDS011;25478;42.626;23.320;2023-07-30T01:24:47;4.07;;;2.70;;
39788;SDS011;25478;42.626;23.320;2023-07-30T01:27:28;4.93;;;3.10;;
39788;SDS011;25478;42.626;23.320;2023-07-30T01:30:07;4.72;;;2.90;;
39788;SDS011;25478;42.626;23.320;2023-07-30T01:32:39;5.68;;;3.10;;
39788;SDS011;25478;42.626;23.320;2023-07-30T01:35:06;5.32;;;3.17;;
39788;SDS011;25478;42.626;23.320;2023-07-30T01:37:33;4.15;;;3.00;;
39788;SDS011;25478;42.626;23.320;2023-07-30T01:39:59;4.53;;;2.88;;
39788;SDS011;25478;42.626;23.320;2023-07-30T01:42:29;5.07;;;2.90;;
39788;SDS011;25478;42.626;23.320;2023-07-30T01:44:55;6.88;;;3.08;;
39788;SDS011;25478;42.626;23.320;2023-07-30T01:47:21;7.32;;;3.33;;
39788;SDS011;25478;42.626;23.320;2023-07-30T01:49:46;7.20;;;3.15;;
39788;SDS011;25478;42.626;23.320;2023-07-30T01:52:12;4.45;;;3.03;;
39788;SDS011;25478;42.626;23.320;2023-07-30T01:54:37;4.15;;;2.80;;
39788;SDS011;25478;42.626;23.320;2023-07-30T01:57:03;7.00;;;3.20;;
39788;SDS011;25478;42.626;23.320;2023-07-30T01:59:29;6.03;;;3.10;;
39788;SDS011;25478;42.626;23.320;2023-07-30T02:01:54;4.85;;;2.80;;
39788;SDS011;25478;42.626;23.320;2023-07-30T02:04:20;4.80;;;3.08;;
39788;SDS011;25478;42.626;23.320;2023-07-30T02:06:45;3.92;;;2.80;;
39788;SDS011;25478;42.626;23.320;2023-07-30T02:09:11;4.13;;;2.70;;
39788;SDS011;25478;42.626;23.320;2023-07-30T02:11:36;4.90;;;3.50;;
39788;SDS011;25478;42.626;23.320;2023-07-30T02:14:02;4.88;;;2.97;;
39788;SDS011;25478;42.626;23.320;2023-07-30T02:16:27;5.35;;;3.10;;
39788;SDS011;25478;42.626;23.320;2023-07-30T02:18:53;4.82;;;3.10;;
39788;SDS011;25478;42.626;23.320;2023-07-30T02:21:18;5.13;;;2.95;;
39788;SDS011;25478;42.626;23.320;2023-07-30T02:23:44;5.40;;;3.00;;
39788;SDS011;25478;42.626;23.320;2023-07-30T02:26:09;4.63;;;3.17;;
39788;SDS011;25478;42.626;23.320;2023-07-30T02:28:36;5.80;;;3.20;;
39788;SDS011;25478;42.626;23.320;2023-07-30T02:31:01;3.97;;;2.90;;
39788;SDS011;25478;42.626;23.320;2023-07-30T02:33:27;5.55;;;2.90;;
39788;SDS011;25478;42.626;23.320;2023-07-30T02:35:52;5.05;;;2.80;;
39788;SDS011;25478;42.626;23.320;2023-07-30T02:38:18;4.60;;;3.00;;
39788;SDS011;25478;42.626;23.320;2023-07-30T02:40:43;4.45;;;2.85;;
39788;SDS011;25478;42.626;23.320;2023-07-30T02:43:08;4.68;;;2.88;;
39788;SDS011;25478;42.626;23.320;2023-07-30T02:45:34;4.30;;;3.00;;
39788;SDS011;25478;42.626;23.320;2023-07-30T02:47:59;5.07;;;2.80;;
39788;SDS011;25478;42.626;23.320;2023-07-30T02:50:25;3.85;;;2.50;;
39788;SDS011;25478;42.626;23.320;2023-07-30T02:52:50;4.88;;;3.17;;
39788;SDS011;25478;42.626;23.320;2023-07-30T02:55:16;4.78;;;3.10;;
39788;SDS011;25478;42.626;23.320;2023-07-30T02:57:42;4.72;;;3.05;;
39788;SDS011;25478;42.626;23.320;2023-07-30T03:00:07;3.55;;;2.65;;
39788;SDS011;25478;42.626;23.320;2023-07-30T03:02:36;5.25;;;2.80;;
39788;SDS011;25478;42.626;23.320;2023-07-30T03:05:01;4.85;;;2.90;;
39788;SDS011;25478;42.626;23.320;2023-07-30T03:07:27;4.78;;;2.80;;
39788;SDS011;25478;42.626;23.320;2023-07-30T03:09:53;4.32;;;3.03;;
39788;SDS011;25478;42.626;23.320;2023-07-30T03:12:18;6.93;;;3.40;;
39788;SDS011;25478;42.626;23.320;2023-07-30T03:14:44;4.43;;;2.95;;
39788;SDS011;25478;42.626;23.320;2023-07-30T03:17:09;4.75;;;2.97;;
39788;SDS011;25478;42.626;23.320;2023-07-30T03:19:35;6.22;;;2.90;;
39788;SDS011;25478;42.626;23.320;2023-07-30T03:22:00;4.95;;;3.03;;
39788;SDS011;25478;42.626;23.320;2023-07-30T03:24:26;6.32;;;2.95;;
39788;SDS011;25478;42.626;23.320;2023-07-30T03:26:51;5.22;;;2.88;;
39788;SDS011;25478;42.626;23.320;2023-07-30T03:29:17;4.63;;;2.80;;
39788;SDS011;25478;42.626;23.320;2023-07-30T03:31:43;4.55;;;3.60;;
39788;SDS011;25478;42.626;23.320;2023-07-30T03:34:09;6.53;;;3.28;;
39788;SDS011;25478;42.626;23.320;2023-07-30T03:36:34;4.70;;;2.92;;
39788;SDS011;25478;42.626;23.320;2023-07-30T03:38:59;4.22;;;2.88;;
39788;SDS011;25478;42.626;23.320;2023-07-30T03:41:25;4.68;;;3.17;;
39788;SDS011;25478;42.626;23.320;2023-07-30T03:43:52;6.05;;;3.05;;
39788;SDS011;25478;42.626;23.320;2023-07-30T03:46:17;5.80;;;3.15;;
39788;SDS011;25478;42.626;23.320;2023-07-30T03:48:43;4.78;;;3.10;;
39788;SDS011;25478;42.626;23.320;2023-07-30T03:51:08;5.95;;;3.20;;
39788;SDS011;25478;42.626;23.320;2023-07-30T03:53:34;5.55;;;2.80;;
39788;SDS011;25478;42.626;23.320;2023-07-30T03:56:01;5.57;;;3.00;;
39788;SDS011;25478;42.626;23.320;2023-07-30T03:58:27;5.07;;;3.15;;
39788;SDS011;25478;42.626;23.320;2023-07-30T04:00:52;5.15;;;3.38;;
39788;SDS011;25478;42.626;23.320;2023-07-30T04:03:18;4.95;;;3.08;;
39788;SDS011;25478;42.626;23.320;2023-07-30T04:05:43;4.95;;;3.50;;
39788;SDS011;25478;42.626;23.320;2023-07-30T04:08:09;5.13;;;3.20;;
39788;SDS011;25478;42.626;23.320;2023-07-30T04:10:34;5.78;;;3.28;;
39788;SDS011;25478;42.626;23.320;2023-07-30T04:12:59;4.60;;;3.17;;
39788;SDS011;25478;42.626;23.320;2023-07-30T04:15:25;5.53;;;3.90;;
39788;SDS011;25478;42.626;23.320;2023-07-30T04:17:51;4.78;;;3.42;;
39788;SDS011;25478;42.626;23.320;2023-07-30T04:20:16;6.00;;;3.50;;
39788;SDS011;25478;42.626;23.320;2023-07-30T04:22:43;5.60;;;3.88;;
39788;SDS011;25478;42.626;23.320;2023-07-30T04:25:09;5.35;;;3.83;;
39788;SDS011;25478;42.626;23.320;2023-07-30T04:27:36;5.90;;;3.42;;
39788;SDS011;25478;42.626;23.320;2023-07-30T04:30:02;6.97;;;3.80;;
39788;SDS011;25478;42.626;23.320;2023-07-30T04:32:28;6.53;;;4.03;;
39788;SDS011;25478;42.626;23.320;2023-07-30T04:34:54;7.72;;;3.63;;
39788;SDS011;25478;42.626;23.320;2023-07-30T04:37:20;5.45;;;4.05;;
39788;SDS011;25478;42.626;23.320;2023-07-30T04:39:45;5.28;;;3.90;;
39788;SDS011;25478;42.626;23.320;2023-07-30T04:42:11;5.68;;;3.95;;
39788;SDS011;25478;42.626;23.320;2023-07-30T04:44:38;6.85;;;4.07;;
39788;SDS011;25478;42.626;23.320;2023-07-30T04:47:10;6.30;;;3.75;;
39788;SDS011;25478;42.626;23.320;2023-07-30T04:49:35;6.03;;;3.67;;
39788;SDS011;25478;42.626;23.320;2023-07-30T04:52:02;4.90;;;3.70;;
39788;SDS011;25478;42.626;23.320;2023-07-30T04:54:28;6.15;;;3.92;;
39788;SDS011;25478;42.626;23.320;2023-07-30T04:56:54;5.53;;;4.13;;
39788;SDS011;25478;42.626;23.320;2023-07-30T04:59:19;9.55;;;4.10;;
39788;SDS011;25478;42.626;23.320;2023-07-30T05:01:45;6.68;;;4.10;;
39788;SDS011;25478;42.626;23.320;2023-07-30T05:04:10;8.35;;;4.43;;
39788;SDS011;25478;42.626;23.320;2023-07-30T05:06:36;6.80;;;4.30;;
39788;SDS011;25478;42.626;23.320;2023-07-30T05:09:01;9.85;;;4.65;;
39788;SDS011;25478;42.626;23.320;2023-07-30T05:11:27;7.25;;;5.18;;
39788;SDS011;25478;42.626;23.320;2023-07-30T05:13:52;8.65;;;4.85;;
39788;SDS011;25478;42.626;23.320;2023-07-30T05:16:18;8.63;;;5.00;;
39788;SDS011;25478;42.626;23.320;2023-07-30T05:18:44;11.70;;;4.82;;
39788;SDS011;25478;42.626;23.320;2023-07-30T05:21:09;8.43;;;4.75;;
39788;SDS011;25478;42.626;23.320;2023-07-30T05:23:35;6.63;;;4.35;;
39788;SDS011;25478;42.626;23.320;2023-07-30T05:26:00;7.55;;;4.43;;
39788;SDS011;25478;42.626;23.320;2023-07-30T05:28:26;5.85;;;3.90;;
39788;SDS011;25478;42.626;23.320;2023-07-30T05:30:51;7.47;;;5.50;;
39788;SDS011;25478;42.626;23.320;2023-07-30T05:33:18;7.88;;;4.82;;
39788;SDS011;25478;42.626;23.320;2023-07-30T05:35:43;6.13;;;4.70;;
39788;SDS011;25478;42.626;23.320;2023-07-30T05:38:09;9.10;;;4.40;;
39788;SDS011;25478;42.626;23.320;2023-07-30T05:40:35;9.27;;;4.75;;
39788;SDS011;25478;42.626;23.320;2023-07-30T05:43:01;6.97;;;4.43;;
39788;SDS011;25478;42.626;23.320;2023-07-30T05:45:26;14.00;;;4.60;;
39788;SDS011;25478;42.626;23.320;2023-07-30T05:47:52;13.25;;;4.65;;
39788;SDS011;25478;42.626;23.320;2023-07-30T05:50:17;10.98;;;4.80;;
39788;SDS011;25478;42.626;23.320;2023-07-30T05:52:43;8.70;;;4.13;;
39788;SDS011;25478;42.626;23.320;2023-07-30T05:55:09;8.02;;;4.57;;
39788;SDS011;25478;42.626;23.320;2023-07-30T05:57:34;5.78;;;3.85;;
39788;SDS011;25478;42.626;23.320;2023-07-30T06:00:00;6.57;;;4.00;;
39788;SDS011;25478;42.626;23.320;2023-07-30T06:02:26;5.82;;;3.90;;
39788;SDS011;25478;42.626;23.320;2023-07-30T06:04:52;10.25;;;4.30;;
39788;SDS011;25478;42.626;23.320;2023-07-30T06:07:17;6.40;;;3.63;;
39788;SDS011;25478;42.626;23.320;2023-07-30T06:09:42;7.10;;;4.18;;
39788;SDS011;25478;42.626;23.320;2023-07-30T06:12:08;6.90;;;4.20;;
39788;SDS011;25478;42.626;23.320;2023-07-30T06:14:34;6.43;;;4.00;;
39788;SDS011;25478;42.626;23.320;2023-07-30T06:16:59;6.72;;;3.60;;
39788;SDS011;25478;42.626;23.320;2023-07-30T06:19:24;7.78;;;4.13;;
39788;SDS011;25478;42.626;23.320;2023-07-30T06:21:51;6.30;;;3.80;;
39788;SDS011;25478;42.626;23.320;2023-07-30T06:24:17;7.88;;;3.88;;
39788;SDS011;25478;42.626;23.320;2023-07-30T06:26:42;8.63;;;3.60;;
39788;SDS011;25478;42.626;23.320;2023-07-30T06:29:08;9.80;;;4.00;;
39788;SDS011;25478;42.626;23.320;2023-07-30T06:31:33;6.32;;;3.50;;
39788;SDS011;25478;42.626;23.320;2023-07-30T06:33:59;5.72;;;3.90;;
39788;SDS011;25478;42.626;23.320;2023-07-30T06:36:24;7.97;;;3.63;;
39788;SDS011;25478;42.626;23.320;2023-07-30T06:38:50;16.13;;;4.40;;
39788;SDS011;25478;42.626;23.320;2023-07-30T06:41:15;6.82;;;3.67;;
39788;SDS011;25478;42.626;23.320;2023-07-30T06:43:41;6.43;;;3.78;;
39788;SDS011;25478;42.626;23.320;2023-07-30T06:46:06;8.38;;;4.35;;
39788;SDS011;25478;42.626;23.320;2023-07-30T06:48:32;9.48;;;4.22;;
39788;SDS011;25478;42.626;23.320;2023-07-30T06:50:57;7.07;;;4.00;;
39788;SDS011;25478;42.626;23.320;2023-07-30T06:53:23;5.78;;;4.05;;
39788;SDS011;25478;42.626;23.320;2023-07-30T06:55:48;6.38;;;4.13;;
39788;SDS011;25478;42.626;23.320;2023-07-30T06:58:14;8.15;;;4.40;;
39788;SDS011;25478;42.626;23.320;2023-07-30T07:00:39;8.15;;;4.03;;
39788;SDS011;25478;42.626;23.320;2023-07-30T07:03:05;7.03;;;3.80;;
39788;SDS011;25478;42.626;23.320;2023-07-30T07:05:31;6.07;;;3.75;;
39788;SDS011;25478;42.626;23.320;2023-07-30T07:07:56;6.85;;;3.75;;
39788;SDS011;25478;42.626;23.320;2023-07-30T07:10:22;7.03;;;3.88;;
39788;SDS011;25478;42.626;23.320;2023-07-30T07:12:47;6.38;;;3.97;;
39788;SDS011;25478;42.626;23.320;2023-07-30T07:15:13;9.18;;;4.35;;
39788;SDS011;25478;42.626;23.320;2023-07-30T07:17:38;5.80;;;3.78;;
39788;SDS011;25478;42.626;23.320;2023-07-30T07:20:05;8.48;;;4.57;;
39788;SDS011;25478;42.626;23.320;2023-07-30T07:22:33;9.75;;;4.40;;
39788;SDS011;25478;42.626;23.320;2023-07-30T07:24:59;5.35;;;4.05;;
39788;SDS011;25478;42.626;23.320;2023-07-30T07:27:25;7.82;;;4.10;;
39788;SDS011;25478;42.626;23.320;2023-07-30T07:29:51;6.15;;;3.67;;
39788;SDS011;25478;42.626;23.320;2023-07-30T07:32:17;8.35;;;3.95;;
39788;SDS011;25478;42.626;23.320;2023-07-30T07:34:46;6.38;;;3.75;;
39788;SDS011;25478;42.626;23.320;2023-07-30T07:37:13;6.28;;;4.13;;
39788;SDS011;25478;42.626;23.320;2023-07-30T07:39:41;9.77;;;4.50;;
39788;SDS011;25478;42.626;23.320;2023-07-30T07:42:06;6.30;;;3.80;;
39788;SDS011;25478;42.626;23.320;2023-07-30T07:44:32;7.10;;;3.97;;
39788;SDS011;25478;42.626;23.320;2023-07-30T07:46:57;8.65;;;3.92;;
39788;SDS011;25478;42.626;23.320;2023-07-30T07:49:23;8.02;;;4.10;;
39788;SDS011;25478;42.626;23.320;2023-07-30T07:51:48;7.88;;;3.60;;
39788;SDS011;25478;42.626;23.320;2023-07-30T07:54:14;7.18;;;3.55;;
39788;SDS011;25478;42.626;23.320;2023-07-30T07:56:39;5.22;;;3.70;;
39788;SDS011;25478;42.626;23.320;2023-07-30T07:59:05;7.32;;;3.97;;
39788;SDS011;25478;42.626;23.320;2023-07-30T08:01:30;6.78;;;3.63;;
39788;SDS011;25478;42.626;23.320;2023-07-30T08:03:56;7.45;;;3.85;;
39788;SDS011;25478;42.626;23.320;2023-07-30T08:06:21;7.93;;;4.40;;
39788;SDS011;25478;42.626;23.320;2023-07-30T08:08:47;8.15;;;4.25;;
39788;SDS011;25478;42.626;23.320;2023-07-30T08:11:12;5.55;;;3.30;;
39788;SDS011;25478;42.626;23.320;2023-07-30T08:13:38;7.00;;;4.18;;
39788;SDS011;25478;42.626;23.320;2023-07-30T08:16:04;7.07;;;3.63;;
39788;SDS011;25478;42.626;23.320;2023-07-30T08:18:29;8.18;;;3.75;;
39788;SDS011;25478;42.626;23.320;2023-07-30T08:20:55;8.57;;;3.92;;
39788;SDS011;25478;42.626;23.320;2023-07-30T08:23:20;5.68;;;3.60;;
39788;SDS011;25478;42.626;23.320;2023-07-30T08:25:46;7.55;;;3.42;;
39788;SDS011;25478;42.626;23.320;2023-07-30T08:28:13;10.38;;;3.80;;
39788;SDS011;25478;42.626;23.320;2023-07-30T08:30:39;5.22;;;3.50;;
39788;SDS011;25478;42.626;23.320;2023-07-30T08:33:04;5.72;;;3.10;;
39788;SDS011;25478;42.626;23.320;2023-07-30T08:35:30;5.47;;;3.13;;
39788;SDS011;25478;42.626;23.320;2023-07-30T08:37:55;5.90;;;3.50;;
39788;SDS011;25478;42.626;23.320;2023-07-30T08:40:21;10.77;;;3.78;;
39788;SDS011;25478;42.626;23.320;2023-07-30T08:42:49;4.28;;;3.53;;
39788;SDS011;25478;42.626;23.320;2023-07-30T08:45:19;6.30;;;3.65;;
39788;SDS011;25478;42.626;23.320;2023-07-30T08:47:46;5.50;;;3.58;;
39788;SDS011;25478;42.626;23.320;2023-07-30T08:50:12;7.25;;;3.40;;
39788;SDS011;25478;42.626;23.320;2023-07-30T08:52:38;5.93;;;3.67;;
39788;SDS011;25478;42.626;23.320;2023-07-30T08:55:04;6.63;;;3.38;;
39788;SDS011;25478;42.626;23.320;2023-07-30T08:57:30;6.18;;;3.75;;
39788;SDS011;25478;42.626;23.320;2023-07-30T09:00:05;7.32;;;4.10;;
39788;SDS011;25478;42.626;23.320;2023-07-30T09:05:01;8.23;;;3.72;;
39788;SDS011;25478;42.626;23.320;2023-07-30T09:07:28;5.25;;;3.40;;
39788;SDS011;25478;42.626;23.320;2023-07-30T09:09:53;5.90;;;3.92;;
39788;SDS011;25478;42.626;23.320;2023-07-30T09:12:19;8.60;;;3.50;;
39788;SDS011;25478;42.626;23.320;2023-07-30T09:14:46;5.82;;;3.67;;
39788;SDS011;25478;42.626;23.320;2023-07-30T09:17:16;4.80;;;3.47;;
39788;SDS011;25478;42.626;23.320;2023-07-30T09:19:43;6.50;;;3.53;;
39788;SDS011;25478;42.626;23.320;2023-07-30T09:22:08;6.57;;;4.00;;
39788;SDS011;25478;42.626;23.320;2023-07-30T09:24:34;5.43;;;3.72;;
39788;SDS011;25478;42.626;23.320;2023-07-30T09:27:03;5.90;;;3.85;;
39788;SDS011;25478;42.626;23.320;2023-07-30T09:29:29;6.35;;;3.85;;
39788;SDS011;25478;42.626;23.320;2023-07-30T09:31:54;6.22;;;4.07;;
39788;SDS011;25478;42.626;23.320;2023-07-30T09:34:21;5.10;;;3.60;;
39788;SDS011;25478;42.626;23.320;2023-07-30T09:36:52;5.60;;;3.70;;
39788;SDS011;25478;42.626;23.320;2023-07-30T09:39:23;6.57;;;3.85;;
39788;SDS011;25478;42.626;23.320;2023-07-30T09:41:50;6.40;;;3.78;;
39788;SDS011;25478;42.626;23.320;2023-07-30T09:44:17;5.45;;;3.75;;
39788;SDS011;25478;42.626;23.320;2023-07-30T09:46:45;7.57;;;4.10;;
39788;SDS011;25478;42.626;23.320;2023-07-30T09:49:13;9.52;;;4.82;;
39788;SDS011;25478;42.626;23.320;2023-07-30T09:51:38;5.38;;;3.95;;
39788;SDS011;25478;42.626;23.320;2023-07-30T09:54:09;7.03;;;4.03;;
39788;SDS011;25478;42.626;23.320;2023-07-30T09:56:36;4.80;;;3.78;;
39788;SDS011;25478;42.626;23.320;2023-07-30T09:59:03;6.35;;;4.32;;
39788;SDS011;25478;42.626;23.320;2023-07-30T10:01:30;5.63;;;3.90;;
39788;SDS011;25478;42.626;23.320;2023-07-30T10:03:58;5.38;;;3.72;;
39788;SDS011;25478;42.626;23.320;2023-07-30T10:06:25;6.38;;;3.80;;
39788;SDS011;25478;42.626;23.320;2023-07-30T10:08:52;6.53;;;4.03;;
39788;SDS011;25478;42.626;23.320;2023-07-30T10:11:19;7.03;;;4.00;;
39788;SDS011;25478;42.626;23.320;2023-07-30T10:13:46;6.60;;;3.88;;
39788;SDS011;25478;42.626;23.320;2023-07-30T10:16:12;5.53;;;4.03;;
39788;SDS011;25478;42.626;23.320;2023-07-30T10:18:41;4.95;;;3.55;;
39788;SDS011;25478;42.626;23.320;2023-07-30T10:21:08;5.03;;;3.88;;
39788;SDS011;25478;42.626;23.320;2023-07-30T10:23:35;6.30;;;4.13;;
39788;SDS011;25478;42.626;23.320;2023-07-30T10:26:10;6.85;;;4.25;;
39788;SDS011;25478;42.626;23.320;2023-07-30T10:28:36;6.78;;;4.50;;
39788;SDS011;25478;42.626;23.320;2023-07-30T10:31:06;6.47;;;3.97;;
39788;SDS011;25478;42.626;23.320;2023-07-30T10:33:49;6.82;;;4.35;;
39788;SDS011;25478;42.626;23.320;2023-07-30T10:36:17;6.75;;;4.28;;
39788;SDS011;25478;42.626;23.320;2023-07-30T10:38:44;7.13;;;4.13;;
39788;SDS011;25478;42.626;23.320;2023-07-30T10:41:12;7.25;;;4.40;;
39788;SDS011;25478;42.626;23.320;2023-07-30T10:43:40;6.57;;;4.18;;
39788;SDS011;25478;42.626;23.320;2023-07-30T10:46:11;7.88;;;4.22;;
39788;SDS011;25478;42.626;23.320;2023-07-30T10:48:38;6.55;;;4.10;;
39788;SDS011;25478;42.626;23.320;2023-07-30T10:51:06;6.32;;;4.30;;
39788;SDS011;25478;42.626;23.320;2023-07-30T10:53:42;6.15;;;4.32;;
39788;SDS011;25478;42.626;23.320;2023-07-30T10:56:08;6.25;;;4.15;;
39788;SDS011;25478;42.626;23.320;2023-07-30T10:58:35;6.32;;;4.15;;
39788;SDS011;25478;42.626;23.320;2023-07-30T11:01:02;6.47;;;3.95;;
39788;SDS011;25478;42.626;23.320;2023-07-30T11:03:31;8.32;;;4.38;;
39788;SDS011;25478;42.626;23.320;2023-07-30T11:05:58;6.03;;;4.55;;
39788;SDS011;25478;42.626;23.320;2023-07-30T11:08:34;4.97;;;4.13;;
39788;SDS011;25478;42.626;23.320;2023-07-30T11:11:05;6.20;;;4.60;;
39788;SDS011;25478;42.626;23.320;2023-07-30T11:13:39;5.78;;;4.05;;
39788;SDS011;25478;42.626;23.320;2023-07-30T11:16:06;5.45;;;3.97;;
39788;SDS011;25478;42.626;23.320;2023-07-30T11:18:33;6.82;;;4.40;;
39788;SDS011;25478;42.626;23.320;2023-07-30T11:21:06;5.65;;;4.00;;
39788;SDS011;25478;42.626;23.320;2023-07-30T11:23:32;6.15;;;4.22;;
39788;SDS011;25478;42.626;23.320;2023-07-30T11:25:59;7.68;;;4.25;;
39788;SDS011;25478;42.626;23.320;2023-07-30T11:28:32;6.05;;;4.47;;
39788;SDS011;25478;42.626;23.320;2023-07-30T11:30:59;7.60;;;4.38;;
39788;SDS011;25478;42.626;23.320;2023-07-30T11:33:27;7.03;;;4.30;;
39788;SDS011;25478;42.626;23.320;2023-07-30T11:35:54;6.07;;;4.68;;
39788;SDS011;25478;42.626;23.320;2023-07-30T11:38:21;5.55;;;4.13;;
39788;SDS011;25478;42.626;23.320;2023-07-30T11:40:47;6.50;;;4.57;;
39788;SDS011;25478;42.626;23.320;2023-07-30T11:43:14;5.85;;;4.30;;
39788;SDS011;25478;42.626;23.320;2023-07-30T11:45:39;7.00;;;4.63;;
39788;SDS011;25478;42.626;23.320;2023-07-30T11:48:05;7.03;;;4.55;;
39788;SDS011;25478;42.626;23.320;2023-07-30T11:50:44;5.15;;;4.50;;
39788;SDS011;25478;42.626;23.320;2023-07-30T11:53:17;6.38;;;4.55;;
39788;SDS011;25478;42.626;23.320;2023-07-30T11:55:43;5.20;;;4.05;;
39788;SDS011;25478;42.626;23.320;2023-07-30T11:58:10;9.32;;;4.50;;
39788;SDS011;25478;42.626;23.320;2023-07-30T12:00:38;6.30;;;4.13;;
39788;SDS011;25478;42.626;23.320;2023-07-30T12:03:05;6.20;;;4.45;;
39788;SDS011;25478;42.626;23.320;2023-07-30T12:05:35;5.80;;;4.15;;
39788;SDS011;25478;42.626;23.320;2023-07-30T12:08:02;6.18;;;4.80;;
39788;SDS011;25478;42.626;23.320;2023-07-30T12:10:44;7.10;;;4.50;;
39788;SDS011;25478;42.626;23.320;2023-07-30T12:13:17;6.70;;;4.57;;
39788;SDS011;25478;42.626;23.320;2023-07-30T12:15:50;6.65;;;4.30;;
39788;SDS011;25478;42.626;23.320;2023-07-30T12:18:22;6.75;;;4.25;;
39788;SDS011;25478;42.626;23.320;2023-07-30T12:20:52;5.72;;;4.63;;
39788;SDS011;25478;42.626;23.320;2023-07-30T12:23:21;6.25;;;4.53;;
39788;SDS011;25478;42.626;23.320;2023-07-30T12:25:47;5.18;;;4.45;;
39788;SDS011;25478;42.626;23.320;2023-07-30T12:28:12;7.07;;;4.47;;
39788;SDS011;25478;42.626;23.320;2023-07-30T12:30:38;7.93;;;4.70;;
39788;SDS011;25478;42.626;23.320;2023-07-30T12:33:04;5.95;;;4.90;;
39788;SDS011;25478;42.626;23.320;2023-07-30T12:35:30;6.95;;;4.28;;
39788;SDS011;25478;42.626;23.320;2023-07-30T12:37:56;5.45;;;4.70;;
39788;SDS011;25478;42.626;23.320;2023-07-30T12:40:22;6.30;;;4.45;;
39788;SDS011;25478;42.626;23.320;2023-07-30T12:42:48;7.22;;;4.50;;
39788;SDS011;25478;42.626;23.320;2023-07-30T12:45:13;6.28;;;4.45;;
39788;SDS011;25478;42.626;23.320;2023-07-30T12:47:40;7.75;;;5.00;;
39788;SDS011;25478;42.626;23.320;2023-07-30T12:50:06;7.07;;;4.47;;
39788;SDS011;25478;42.626;23.320;2023-07-30T12:52:32;6.57;;;4.50;;
39788;SDS011;25478;42.626;23.320;2023-07-30T12:54:59;6.50;;;4.53;;
39788;SDS011;25478;42.626;23.320;2023-07-30T12:57:24;6.80;;;4.80;;
39788;SDS011;25478;42.626;23.320;2023-07-30T12:59:50;6.53;;;5.10;;
39788;SDS011;25478;42.626;23.320;2023-07-30T13:02:15;6.53;;;4.40;;
39788;SDS011;25478;42.626;23.320;2023-07-30T13:04:41;6.78;;;4.78;;
39788;SDS011;25478;42.626;23.320;2023-07-30T13:07:06;6.18;;;4.38;;
39788;SDS011;25478;42.626;23.320;2023-07-30T13:09:32;8.10;;;4.95;;
39788;SDS011;25478;42.626;23.320;2023-07-30T13:11:57;7.43;;;4.65;;
39788;SDS011;25478;42.626;23.320;2023-07-30T13:14:23;6.57;;;4.50;;
39788;SDS011;25478;42.626;23.320;2023-07-30T13:16:49;6.70;;;4.90;;
39788;SDS011;25478;42.626;23.320;2023-07-30T13:19:14;7.30;;;4.70;;
39788;SDS011;25478;42.626;23.320;2023-07-30T13:21:40;5.97;;;4.68;;
39788;SDS011;25478;42.626;23.320;2023-07-30T13:24:05;5.50;;;4.45;;
39788;SDS011;25478;42.626;23.320;2023-07-30T13:26:31;6.25;;;4.70;;
39788;SDS011;25478;42.626;23.320;2023-07-30T13:28:56;8.65;;;5.40;;
39788;SDS011;25478;42.626;23.320;2023-07-30T13:31:22;8.30;;;5.43;;
39788;SDS011;25478;42.626;23.320;2023-07-30T13:33:47;8.88;;;5.85;;
39788;SDS011;25478;42.626;23.320;2023-07-30T13:36:14;10.30;;;5.68;;
39788;SDS011;25478;42.626;23.320;2023-07-30T13:38:40;7.93;;;5.50;;
39788;SDS011;25478;42.626;23.320;2023-07-30T13:41:06;7.70;;;5.10;;
39788;SDS011;25478;42.626;23.320;2023-07-30T13:43:31;8.30;;;5.53;;
39788;SDS011;25478;42.626;23.320;2023-07-30T13:45:57;7.50;;;5.38;;
39788;SDS011;25478;42.626;23.320;2023-07-30T13:48:23;6.60;;;4.50;;
39788;SDS011;25478;42.626;23.320;2023-07-30T13:50:49;6.32;;;4.80;;
39788;SDS011;25478;42.626;23.320;2023-07-30T13:53:15;8.10;;;5.15;;
39788;SDS011;25478;42.626;23.320;2023-07-30T13:55:41;6.22;;;5.10;;
39788;SDS011;25478;42.626;23.320;2023-07-30T13:58:06;6.10;;;4.63;;
39788;SDS011;25478;42.626;23.320;2023-07-30T14:00:32;6.47;;;5.05;;
39788;SDS011;25478;42.626;23.320;2023-07-30T14:02:57;7.90;;;4.95;;
39788;SDS011;25478;42.626;23.320;2023-07-30T14:05:23;6.68;;;4.93;;
39788;SDS011;25478;42.626;23.320;2023-07-30T14:07:48;9.15;;;5.78;;
39788;SDS011;25478;42.626;23.320;2023-07-30T14:10:16;7.68;;;5.43;;
39788;SDS011;25478;42.626;23.320;2023-07-30T14:12:42;7.63;;;5.40;;
39788;SDS011;25478;42.626;23.320;2023-07-30T14:15:07;6.13;;;5.00;;
39788;SDS011;25478;42.626;23.320;2023-07-30T14:17:33;6.50;;;5.28;;
39788;SDS011;25478;42.626;23.320;2023-07-30T14:19:59;7.28;;;5.60;;
39788;SDS011;25478;42.626;23.320;2023-07-30T14:22:24;7.70;;;5.50;;
39788;SDS011;25478;42.626;23.320;2023-07-30T14:24:50;7.68;;;5.45;;
39788;SDS011;25478;42.626;23.320;2023-07-30T14:27:15;8.73;;;5.28;;
39788;SDS011;25478;42.626;23.320;2023-07-30T14:29:41;8.50;;;5.55;;
39788;SDS011;25478;42.626;23.320;2023-07-30T14:32:06;7.10;;;5.10;;